Time,TemperatureF,DewpointF,PressureIn,WindDirection,WindDirectionDegrees,WindSpeedMPH,WindSpeedGustMPH,Humidity,HourlyPrecipIn,Conditions,Clouds,dailyrainin,SoftwareType,DateUTC
2013-02-23 00:01:00,11.2,-0.3,30.22,SW,230,20.0,25.0,59,0.00,,---,0.02,VWS V14.01,2013-02-23 07:01:00,
2013-02-23 00:06:00,11.1,-0.1,30.22,West,262,6.0,18.0,60,0.00,,---,0.00,VWS V14.01,2013-02-23 07:06:00,
2013-02-23 00:11:00,11.1,-0.4,30.22,WNW,284,6.0,14.0,59,0.00,,---,0.00,VWS V14.01,2013-02-23 07:11:00,
2013-02-23 00:16:00,11.0,-0.5,30.21,SW,218,14.0,24.0,59,0.00,,---,0.00,VWS V14.01,2013-02-23 07:16:00,
2013-02-23 00:21:00,11.0,-0.5,30.22,SSW,213,22.0,35.0,59,0.00,,---,0.00,VWS V14.01,2013-02-23 07:21:00,
2013-02-23 00:26:00,11.2,-0.7,30.22,West,278,7.0,22.0,58,0.00,,---,0.00,VWS V14.01,2013-02-23 07:26:00,
2013-02-23 00:31:00,11.1,-1.1,30.21,WSW,248,9.0,31.0,57,0.00,,---,0.00,VWS V14.01,2013-02-23 07:31:00,
2013-02-23 00:36:00,11.0,-0.9,30.21,SSW,211,3.0,14.0,58,0.00,,---,0.00,VWS V14.01,2013-02-23 07:36:00,
2013-02-23 00:41:00,10.9,-1.0,30.21,South,190,7.0,21.0,58,0.00,,---,0.00,VWS V14.01,2013-02-23 07:41:00,
2013-02-23 00:46:00,10.8,-1.1,30.21,SSW,211,9.0,16.0,58,0.00,,---,0.00,VWS V14.01,2013-02-23 07:46:00,
2013-02-23 00:51:00,10.9,-1.0,30.21,SSW,195,2.0,31.0,58,0.00,,---,0.00,VWS V14.01,2013-02-23 07:51:00,
2013-02-23 00:56:00,11.0,-1.2,30.20,SSW,202,7.0,27.0,57,0.00,,---,0.00,VWS V14.01,2013-02-23 07:56:00,
2013-02-23 01:01:00,11.0,-1.2,30.20,SW,219,14.0,28.0,57,0.00,,---,0.00,VWS V14.01,2013-02-23 08:01:00,
2013-02-23 01:06:00,11.2,-1.0,30.20,SW,215,6.0,20.0,57,0.00,,---,0.00,VWS V14.01,2013-02-23 08:06:00,
2013-02-23 01:11:00,11.1,-1.1,30.20,WNW,301,24.0,27.0,57,0.00,,---,0.00,VWS V14.01,2013-02-23 08:11:00,
2013-02-23 01:16:00,11.1,-0.8,30.19,WSW,250,20.0,28.0,58,0.00,,---,0.00,VWS V14.01,2013-02-23 08:16:00,
2013-02-23 01:21:00,11.0,-0.9,30.19,SSW,196,14.0,14.0,58,0.00,,---,0.00,VWS V14.01,2013-02-23 08:21:00,
2013-02-23 01:26:00,11.1,-0.8,30.19,SSE,168,2.0,15.0,58,0.00,,---,0.00,VWS V14.01,2013-02-23 08:26:00,
2013-02-23 01:31:00,11.2,-0.7,30.19,South,173,0.0,13.0,58,0.00,,---,0.00,VWS V14.01,2013-02-23 08:31:00,
2013-02-23 01:36:00,11.4,-0.9,30.18,SSW,194,20.0,24.0,57,0.00,,---,0.00,VWS V14.01,2013-02-23 08:36:00,
2013-02-23 01:41:00,11.6,-0.7,30.19,WSW,243,14.0,29.0,57,0.00,,---,0.00,VWS V14.01,2013-02-23 08:41:00,
2013-02-23 01:46:00,11.7,-0.6,30.20,South,188,9.0,9.0,57,0.00,,---,0.00,VWS V14.01,2013-02-23 08:46:00,
2013-02-23 01:51:00,11.7,-0.6,30.18,SW,229,22.0,29.0,57,0.00,,---,0.00,VWS V14.01,2013-02-23 08:51:00,
2013-02-23 01:56:00,11.8,-0.9,30.18,SSW,204,7.0,18.0,56,0.00,,---,0.00,VWS V14.01,2013-02-23 08:56:00,
2013-02-23 02:01:00,11.9,-0.8,30.18,WSW,250,15.0,25.0,56,0.00,,---,0.00,VWS V14.01,2013-02-23 09:01:00,
2013-02-23 02:06:00,11.9,-0.8,30.18,West,259,9.0,19.0,56,0.00,,---,0.00,VWS V14.01,2013-02-23 09:06:00,
2013-02-23 02:11:00,12.0,-0.7,30.18,SW,218,14.0,26.0,56,0.00,,---,0.00,VWS V14.01,2013-02-23 09:11:00,
2013-02-23 02:16:00,12.1,-0.6,30.18,WSW,244,12.0,23.0,56,0.00,,---,0.00,VWS V14.01,2013-02-23 09:16:00,
2013-02-23 02:21:00,12.3,-0.4,30.17,SW,227,16.0,31.0,56,0.00,,---,0.00,VWS V14.01,2013-02-23 09:21:00,
2013-02-23 02:26:00,12.4,-0.7,30.17,WSW,237,15.0,21.0,55,0.00,,---,0.00,VWS V14.01,2013-02-23 09:26:00,
2013-02-23 02:31:00,12.4,-0.3,30.18,WSW,243,9.0,25.0,56,0.00,,---,0.00,VWS V14.01,2013-02-23 09:31:00,
2013-02-23 02:36:00,12.3,-0.4,30.17,SSE,150,7.0,16.0,56,0.00,,---,0.00,VWS V14.01,2013-02-23 09:36:00,
2013-02-23 02:41:00,12.3,0.0,30.18,WNW,302,5.0,11.0,57,0.00,,---,0.00,VWS V14.01,2013-02-23 09:41:00,
2013-02-23 02:46:00,12.3,0.0,30.17,SW,235,28.0,28.0,57,0.00,,---,0.00,VWS V14.01,2013-02-23 09:46:00,
2013-02-23 02:51:00,12.4,0.1,30.18,WSW,244,5.0,24.0,57,0.00,,---,0.00,VWS V14.01,2013-02-23 09:51:00,
2013-02-23 02:56:00,12.4,0.1,30.18,SW,232,10.0,20.0,57,0.00,,---,0.00,VWS V14.01,2013-02-23 09:56:00,
2013-02-23 03:01:00,12.3,0.0,30.18,SW,226,12.0,12.0,57,0.00,,---,0.00,VWS V14.01,2013-02-23 10:01:00,
2013-02-23 03:06:00,12.2,0.3,30.18,WSW,247,9.0,23.0,58,0.00,,---,0.00,VWS V14.01,2013-02-23 10:06:00,
2013-02-23 03:11:00,12.3,0.0,30.19,SW,225,22.0,22.0,57,0.00,,---,0.00,VWS V14.01,2013-02-23 10:11:00,
2013-02-23 03:16:00,12.4,0.1,30.19,WSW,240,15.0,28.0,57,0.00,,---,0.00,VWS V14.01,2013-02-23 10:16:00,
2013-02-23 03:21:00,12.8,0.4,30.19,SW,232,14.0,37.0,57,0.00,,---,0.00,VWS V14.01,2013-02-23 10:21:00,
2013-02-23 03:26:00,12.8,0.1,30.19,SE,144,13.0,16.0,56,0.00,,---,0.00,VWS V14.01,2013-02-23 10:26:00,
2013-02-23 03:31:00,12.9,0.2,30.19,SW,217,14.0,23.0,56,0.00,,---,0.00,VWS V14.01,2013-02-23 10:31:00,
2013-02-23 03:36:00,13.0,-0.1,30.19,SSW,199,14.0,23.0,55,0.00,,---,0.00,VWS V14.01,2013-02-23 10:36:00,
2013-02-23 03:41:00,13.0,-0.1,30.20,WSW,251,22.0,27.0,55,0.00,,---,0.00,VWS V14.01,2013-02-23 10:41:00,
2013-02-23 03:47:00,13.1,0.0,30.19,WSW,257,11.0,19.0,55,0.00,,---,0.00,VWS V14.01,2013-02-23 10:47:00,
2013-02-23 03:52:00,13.1,0.0,30.19,SSW,203,11.0,18.0,55,0.00,,---,0.00,VWS V14.01,2013-02-23 10:52:00,
2013-02-23 03:57:00,13.2,0.1,30.19,WSW,241,9.0,11.0,55,0.00,,---,0.00,VWS V14.01,2013-02-23 10:57:00,
2013-02-23 04:02:00,13.3,0.2,30.18,WSW,249,8.0,13.0,55,0.00,,---,0.00,VWS V14.01,2013-02-23 11:02:00,
2013-02-23 04:07:00,13.3,0.2,30.18,South,172,7.0,7.0,55,0.00,,---,0.00,VWS V14.01,2013-02-23 11:07:00,
2013-02-23 04:12:00,13.0,0.3,30.18,SSW,200,3.0,4.0,56,0.00,,---,0.00,VWS V14.01,2013-02-23 11:12:00,
2013-02-23 04:17:00,13.0,0.6,30.18,SSE,165,1.0,12.0,57,0.00,,---,0.00,VWS V14.01,2013-02-23 11:17:00,
2013-02-23 04:22:00,13.3,0.9,30.17,South,186,6.0,10.0,57,0.00,,---,0.00,VWS V14.01,2013-02-23 11:22:00,
2013-02-23 04:27:00,13.2,0.8,30.18,WSW,255,4.0,5.0,57,0.00,,---,0.00,VWS V14.01,2013-02-23 11:27:00,
2013-02-23 04:32:00,13.3,0.9,30.18,SW,217,13.0,14.0,57,0.00,,---,0.00,VWS V14.01,2013-02-23 11:32:00,
2013-02-23 04:38:00,13.5,1.1,30.18,SSE,158,6.0,8.0,57,0.00,,---,0.00,VWS V14.01,2013-02-23 11:38:00,
2013-02-23 04:43:00,13.8,1.4,30.18,SW,220,7.0,8.0,57,0.00,,---,0.00,VWS V14.01,2013-02-23 11:43:00,
2013-02-23 04:48:00,13.9,1.5,30.17,South,172,4.0,4.0,57,0.00,,---,0.00,VWS V14.01,2013-02-23 11:48:00,
2013-02-23 04:53:00,13.8,1.8,30.17,SSW,207,5.0,5.0,58,0.00,,---,0.00,VWS V14.01,2013-02-23 11:53:00,
2013-02-23 04:58:00,13.8,2.1,30.17,SSW,209,5.0,9.0,59,0.00,,---,0.00,VWS V14.01,2013-02-23 11:58:00,
2013-02-23 05:03:00,14.2,2.5,30.17,SSE,168,8.0,8.0,59,0.00,,---,0.00,VWS V14.01,2013-02-23 12:03:00,
2013-02-23 05:08:00,14.4,2.3,30.17,South,172,10.0,13.0,58,0.00,,---,0.00,VWS V14.01,2013-02-23 12:08:00,
2013-02-23 05:13:00,14.5,2.4,30.17,SSW,208,6.0,21.0,58,0.00,,---,0.00,VWS V14.01,2013-02-23 12:13:00,
2013-02-23 05:18:00,14.8,2.7,30.17,SW,236,7.0,14.0,58,0.00,,---,0.00,VWS V14.01,2013-02-23 12:18:00,
2013-02-23 05:23:00,15.0,2.9,30.17,SW,215,5.0,11.0,58,0.00,,---,0.00,VWS V14.01,2013-02-23 12:23:00,
2013-02-23 05:28:00,15.0,2.9,30.16,WSW,254,13.0,20.0,58,0.00,,---,0.00,VWS V14.01,2013-02-23 12:28:00,
2013-02-23 05:33:00,15.0,3.3,30.17,WSW,245,12.0,16.0,59,0.00,,---,0.00,VWS V14.01,2013-02-23 12:33:00,
2013-02-23 05:38:00,15.2,3.5,30.16,SSE,157,7.0,12.0,59,0.00,,---,0.00,VWS V14.01,2013-02-23 12:38:00,
2013-02-23 05:43:00,15.3,3.5,30.16,SSW,209,15.0,21.0,59,0.00,,---,0.00,VWS V14.01,2013-02-23 12:43:00,
2013-02-23 05:48:00,15.5,3.7,30.15,SW,232,9.0,13.0,59,0.00,,---,0.00,VWS V14.01,2013-02-23 12:48:00,
2013-02-23 05:53:00,15.6,3.5,30.15,WNW,292,9.0,11.0,58,0.00,,---,0.00,VWS V14.01,2013-02-23 12:53:00,
2013-02-23 05:58:00,15.8,3.7,30.15,SE,131,7.0,7.0,58,0.00,,---,0.00,VWS V14.01,2013-02-23 12:58:00,
2013-02-23 06:03:00,16.0,4.2,30.15,SW,232,6.0,8.0,59,0.00,,---,0.00,VWS V14.01,2013-02-23 13:03:00,
2013-02-23 06:08:00,16.1,4.3,30.15,WSW,250,7.0,16.0,59,0.00,,---,0.00,VWS V14.01,2013-02-23 13:08:00,
2013-02-23 06:13:00,16.4,4.2,30.15,WSW,247,0.0,2.0,58,0.00,,---,0.00,VWS V14.01,2013-02-23 13:13:00,
2013-02-23 06:18:00,16.3,4.5,30.16,SSE,159,0.0,5.0,59,0.00,,---,0.00,VWS V14.01,2013-02-23 13:18:00,
2013-02-23 06:23:00,16.1,4.3,30.16,West,277,6.0,9.0,59,0.00,,---,0.00,VWS V14.01,2013-02-23 13:23:00,
2013-02-23 06:28:00,16.2,4.4,30.15,South,182,9.0,18.0,59,0.00,,---,0.00,VWS V14.01,2013-02-23 13:28:00,
2013-02-23 06:33:00,16.2,4.4,30.15,SSW,202,10.0,10.0,59,0.00,,---,0.00,VWS V14.01,2013-02-23 13:33:00,
2013-02-23 06:38:00,16.3,4.1,30.13,SSW,213,5.0,25.0,58,0.00,,---,0.00,VWS V14.01,2013-02-23 13:38:00,
2013-02-23 06:43:00,16.4,4.2,30.13,WSW,257,19.0,19.0,58,0.00,,---,0.00,VWS V14.01,2013-02-23 13:43:00,
2013-02-23 06:48:00,16.6,4.4,30.13,SSW,207,22.0,22.0,58,0.00,,---,0.00,VWS V14.01,2013-02-23 13:48:00,
2013-02-23 06:53:00,16.8,4.6,30.14,South,186,14.0,23.0,58,0.00,,---,0.00,VWS V14.01,2013-02-23 13:53:00,
2013-02-23 06:58:00,16.8,4.6,30.14,ESE,116,9.0,10.0,58,0.00,,---,0.00,VWS V14.01,2013-02-23 13:58:00,
2013-02-23 07:03:00,16.6,4.4,30.15,SSE,163,1.0,10.0,58,0.00,,---,0.00,VWS V14.01,2013-02-23 14:03:00,
2013-02-23 07:08:00,16.6,4.0,30.16,WSW,242,8.0,9.0,57,0.00,,---,0.00,VWS V14.01,2013-02-23 14:08:00,
2013-02-23 07:13:00,16.6,4.4,30.16,South,171,6.0,14.0,58,0.00,,---,0.00,VWS V14.01,2013-02-23 14:13:00,
2013-02-23 07:18:00,16.7,4.9,30.16,SSW,192,11.0,11.0,59,0.00,,---,0.00,VWS V14.01,2013-02-23 14:18:00,
2013-02-23 07:23:00,16.9,4.7,30.16,South,191,2.0,7.0,58,0.00,,---,0.00,VWS V14.01,2013-02-23 14:23:00,
2013-02-23 07:28:00,17.1,4.5,30.15,South,174,1.0,1.0,57,0.00,,---,0.00,VWS V14.01,2013-02-23 14:28:00,
2013-02-23 07:33:00,17.3,4.7,30.16,South,174,0.0,0.0,57,0.00,,---,0.00,VWS V14.01,2013-02-23 14:33:00,
2013-02-23 07:38:00,17.7,4.7,30.16,South,174,0.0,1.0,56,0.00,,---,0.00,VWS V14.01,2013-02-23 14:38:00,
2013-02-23 07:43:00,18.5,6.2,30.15,South,171,9.0,9.0,58,0.00,,---,0.00,VWS V14.01,2013-02-23 14:43:00,
2013-02-23 07:48:00,19.3,6.2,30.16,SSW,192,4.0,4.0,56,0.00,,---,0.00,VWS V14.01,2013-02-23 14:48:00,
2013-02-23 07:53:00,19.8,6.7,30.16,ENE,73,5.0,10.0,56,0.00,,---,0.00,VWS V14.01,2013-02-23 14:53:00,
2013-02-23 07:58:00,20.2,7.4,30.16,North,5,6.0,6.0,57,0.00,,---,0.00,VWS V14.01,2013-02-23 14:58:00,
2013-02-23 08:03:00,20.3,6.7,30.16,NNW,327,2.0,4.0,55,0.00,,---,0.00,VWS V14.01,2013-02-23 15:03:00,
2013-02-23 08:08:00,20.3,6.7,30.16,NNW,337,2.0,2.0,55,0.00,,---,0.00,VWS V14.01,2013-02-23 15:08:00,
2013-02-23 08:13:00,20.3,6.7,30.16,NNW,338,0.0,1.0,55,0.00,,---,0.00,VWS V14.01,2013-02-23 15:13:00,
2013-02-23 08:18:00,20.4,7.2,30.16,NNW,338,4.0,5.0,56,0.00,,---,0.00,VWS V14.01,2013-02-23 15:18:00,
2013-02-23 08:23:00,20.4,7.2,30.16,North,5,2.0,4.0,56,0.00,,---,0.00,VWS V14.01,2013-02-23 15:23:00,
2013-02-23 08:28:00,20.4,8.0,30.16,North,5,0.0,1.0,58,0.00,,---,0.00,VWS V14.01,2013-02-23 15:28:00,
2013-02-23 08:33:00,20.5,7.7,30.16,East,98,6.0,6.0,57,0.00,,---,0.00,VWS V14.01,2013-02-23 15:33:00,
2013-02-23 08:38:00,20.7,7.9,30.15,East,98,7.0,7.0,57,0.00,,---,0.00,VWS V14.01,2013-02-23 15:38:00,
2013-02-23 08:43:00,20.7,8.3,30.14,East,96,2.0,4.0,58,0.00,,---,0.00,VWS V14.01,2013-02-23 15:43:00,
2013-02-23 08:48:00,20.9,8.8,30.14,SSE,163,3.0,11.0,59,0.00,,---,0.00,VWS V14.01,2013-02-23 15:48:00,
2013-02-23 08:53:00,21.2,9.1,30.15,SE,138,6.0,7.0,59,0.00,,---,0.00,VWS V14.01,2013-02-23 15:53:00,
2013-02-23 08:58:00,21.5,8.6,30.14,East,93,8.0,10.0,57,0.00,,---,0.00,VWS V14.01,2013-02-23 15:58:00,
2013-02-23 09:03:00,22.3,9.4,30.14,NE,51,3.0,7.0,57,0.00,,---,0.00,VWS V14.01,2013-02-23 16:03:00,
2013-02-23 09:08:00,23.3,10.3,30.14,ESE,113,5.0,9.0,57,0.00,,---,0.00,VWS V14.01,2013-02-23 16:08:00,
2013-02-23 09:13:00,23.4,9.6,30.14,SE,124,1.0,4.0,55,0.00,,---,0.00,VWS V14.01,2013-02-23 16:13:00,
2013-02-23 09:18:00,23.5,9.3,30.14,ESE,109,4.0,6.0,54,0.00,,---,0.00,VWS V14.01,2013-02-23 16:18:00,
2013-02-23 09:23:00,24.0,10.2,30.14,ESE,109,1.0,4.0,55,0.00,,---,0.00,VWS V14.01,2013-02-23 16:23:00,
2013-02-23 09:28:00,24.4,9.7,30.14,East,85,1.0,3.0,53,0.00,,---,0.00,VWS V14.01,2013-02-23 16:28:00,
2013-02-23 09:33:00,24.6,9.1,30.14,East,81,1.0,4.0,51,0.00,,---,0.00,VWS V14.01,2013-02-23 16:33:00,
2013-02-23 09:38:00,24.5,9.8,30.14,ENE,71,4.0,5.0,53,0.00,,---,0.00,VWS V14.01,2013-02-23 16:38:00,
2013-02-23 09:43:00,25.3,9.7,30.13,NE,50,4.0,9.0,51,0.00,,---,0.00,VWS V14.01,2013-02-23 16:43:00,
2013-02-23 09:48:00,25.7,9.6,30.13,NE,34,10.0,10.0,50,0.00,,---,0.00,VWS V14.01,2013-02-23 16:48:00,
2013-02-23 09:53:00,25.7,9.2,30.12,NNE,28,7.0,11.0,49,0.00,,---,0.00,VWS V14.01,2013-02-23 16:53:00,
2013-02-23 09:58:00,26.0,9.5,30.11,NNE,12,2.0,7.0,49,0.00,,---,0.00,VWS V14.01,2013-02-23 16:58:00,
2013-02-23 10:03:00,27.0,10.4,30.12,WSW,250,4.0,7.0,49,0.00,,---,0.00,VWS V14.01,2013-02-23 17:03:00,
2013-02-23 10:08:00,28.4,10.8,30.11,SSW,203,9.0,12.0,47,0.00,,---,0.00,VWS V14.01,2013-02-23 17:08:00,
2013-02-23 10:13:00,29.8,11.6,30.11,South,186,11.0,15.0,46,0.00,,---,0.00,VWS V14.01,2013-02-23 17:13:00,
2013-02-23 10:18:00,30.6,11.3,30.11,WSW,246,8.0,16.0,44,0.00,,---,0.00,VWS V14.01,2013-02-23 17:18:00,
2013-02-23 10:23:00,31.2,11.8,30.11,West,272,9.0,13.0,44,0.00,,---,0.00,VWS V14.01,2013-02-23 17:23:00,
2013-02-23 10:28:00,32.2,11.7,30.10,SSW,205,2.0,13.0,42,0.01,,---,0.01,VWS V14.01,2013-02-23 17:28:00,
2013-02-23 10:33:00,33.0,11.9,30.10,WSW,248,7.0,11.0,41,0.01,,---,0.01,VWS V14.01,2013-02-23 17:33:00,
2013-02-23 10:38:00,33.5,12.3,30.09,South,172,4.0,14.0,41,0.01,,---,0.01,VWS V14.01,2013-02-23 17:38:00,
2013-02-23 10:43:00,34.1,12.3,30.10,SE,126,4.0,7.0,40,0.01,,---,0.01,VWS V14.01,2013-02-23 17:43:00,
2013-02-23 10:49:00,34.2,11.8,30.09,East,98,7.0,8.0,39,0.01,,---,0.01,VWS V14.01,2013-02-23 17:49:00,
2013-02-23 10:54:00,34.1,12.9,30.09,SE,136,2.0,12.0,41,0.01,,---,0.01,VWS V14.01,2013-02-23 17:54:00,
2013-02-23 10:59:00,34.1,12.9,30.09,SE,128,8.0,11.0,41,0.01,,---,0.01,VWS V14.01,2013-02-23 17:59:00,
2013-02-23 11:04:00,34.3,13.6,30.08,ESE,113,4.0,7.0,42,0.01,,---,0.01,VWS V14.01,2013-02-23 18:04:00,
2013-02-23 11:09:00,34.8,13.5,30.09,South,171,10.0,10.0,41,0.01,,---,0.01,VWS V14.01,2013-02-23 18:09:00,
2013-02-23 11:14:00,35.2,14.4,30.08,SSE,161,5.0,6.0,42,0.01,,---,0.01,VWS V14.01,2013-02-23 18:14:00,
2013-02-23 11:19:00,35.8,14.4,30.08,SSW,206,16.0,21.0,41,0.01,,---,0.01,VWS V14.01,2013-02-23 18:19:00,
2013-02-23 11:24:00,35.7,12.6,30.08,SW,219,13.0,13.0,38,0.01,,---,0.01,VWS V14.01,2013-02-23 18:24:00,
2013-02-23 11:29:00,35.0,12.6,30.08,West,259,15.0,15.0,39,0.01,,---,0.02,VWS V14.01,2013-02-23 18:29:00,
2013-02-23 11:34:00,35.0,12.6,30.08,SW,236,8.0,11.0,39,0.01,,---,0.02,VWS V14.01,2013-02-23 18:34:00,
2013-02-23 11:39:00,34.9,13.0,30.07,SW,222,22.0,22.0,40,0.01,,---,0.02,VWS V14.01,2013-02-23 18:39:00,
2013-02-23 11:44:00,34.9,14.1,30.08,SSE,155,4.0,10.0,42,0.01,,---,0.02,VWS V14.01,2013-02-23 18:44:00,
2013-02-23 11:49:00,35.2,14.4,30.07,SSW,205,11.0,18.0,42,0.01,,---,0.02,VWS V14.01,2013-02-23 18:49:00,
2013-02-23 11:54:00,35.0,13.1,30.07,SSW,209,12.0,18.0,40,0.01,,---,0.02,VWS V14.01,2013-02-23 18:54:00,
2013-02-23 11:59:00,34.8,13.5,30.06,SSW,192,10.0,12.0,41,0.01,,---,0.02,VWS V14.01,2013-02-23 18:59:00,
2013-02-23 12:04:00,35.0,14.2,30.06,South,178,5.0,9.0,42,0.01,,---,0.02,VWS V14.01,2013-02-23 19:04:00,
2013-02-23 12:09:00,35.8,14.4,30.06,SW,232,6.0,20.0,41,0.02,,---,0.03,VWS V14.01,2013-02-23 19:09:00,
2013-02-23 12:14:00,35.1,12.6,30.06,SW,217,5.0,14.0,39,0.02,,---,0.03,VWS V14.01,2013-02-23 19:14:00,
2013-02-23 12:19:00,34.7,13.4,30.05,SSW,207,2.0,6.0,41,0.02,,---,0.03,VWS V14.01,2013-02-23 19:19:00,
2013-02-23 12:24:00,35.3,14.5,30.05,West,261,11.0,11.0,42,0.02,,---,0.03,VWS V14.01,2013-02-23 19:24:00,
2013-02-23 12:29:00,35.9,13.4,30.04,SW,225,7.0,11.0,39,0.01,,---,0.03,VWS V14.01,2013-02-23 19:29:00,
2013-02-23 12:34:00,35.9,13.4,30.04,SW,224,14.0,14.0,39,0.01,,---,0.03,VWS V14.01,2013-02-23 19:34:00,
2013-02-23 12:39:00,35.9,13.9,30.03,West,265,7.0,10.0,40,0.01,,---,0.03,VWS V14.01,2013-02-23 19:39:00,
2013-02-23 12:44:00,36.0,13.5,30.03,West,269,10.0,14.0,39,0.01,,---,0.03,VWS V14.01,2013-02-23 19:44:00,
2013-02-23 12:49:00,35.7,13.2,30.02,WSW,242,8.0,13.0,39,0.01,,---,0.03,VWS V14.01,2013-02-23 19:49:00,
2013-02-23 12:54:00,35.7,14.3,30.02,West,263,6.0,12.0,41,0.01,,---,0.03,VWS V14.01,2013-02-23 19:54:00,
2013-02-23 12:59:00,35.9,13.9,30.02,WSW,258,3.0,14.0,40,0.01,,---,0.03,VWS V14.01,2013-02-23 19:59:00,
2013-02-23 13:04:00,35.9,14.5,30.01,WSW,257,13.0,18.0,41,0.01,,---,0.03,VWS V14.01,2013-02-23 20:04:00,
2013-02-23 13:10:00,36.2,14.2,30.01,SW,221,13.0,19.0,40,0.01,,---,0.03,VWS V14.01,2013-02-23 20:10:00,
2013-02-23 13:15:00,36.1,13.6,30.00,SSW,207,20.0,20.0,39,0.00,,---,0.03,VWS V14.01,2013-02-23 20:15:00,
2013-02-23 13:20:00,35.9,13.9,30.00,SW,223,12.0,19.0,40,0.00,,---,0.03,VWS V14.01,2013-02-23 20:20:00,
2013-02-23 13:25:00,35.5,13.0,29.99,South,181,16.0,19.0,39,0.00,,---,0.03,VWS V14.01,2013-02-23 20:25:00,
2013-02-23 13:30:00,35.6,13.7,29.98,SSW,197,6.0,9.0,40,0.00,,---,0.03,VWS V14.01,2013-02-23 20:30:00,
2013-02-23 13:35:00,35.9,13.9,29.98,South,188,10.0,16.0,40,0.00,,---,0.03,VWS V14.01,2013-02-23 20:35:00,
2013-02-23 13:40:00,36.1,14.7,29.98,SSW,212,9.0,9.0,41,0.00,,---,0.03,VWS V14.01,2013-02-23 20:40:00,
2013-02-23 13:45:00,36.7,14.1,29.97,SSW,207,15.0,16.0,39,0.00,,---,0.03,VWS V14.01,2013-02-23 20:45:00,
2013-02-23 13:50:00,36.8,16.4,29.97,SW,219,9.0,12.0,43,0.00,,---,0.03,VWS V14.01,2013-02-23 20:50:00,
2013-02-23 13:55:00,36.8,14.2,29.97,South,184,8.0,9.0,39,0.01,,---,0.04,VWS V14.01,2013-02-23 20:55:00,
2013-02-23 14:00:00,36.4,15.0,29.97,WSW,239,6.0,16.0,41,0.01,,---,0.04,VWS V14.01,2013-02-23 21:00:00,
2013-02-23 14:05:00,36.5,13.9,29.96,SSW,206,12.0,12.0,39,0.01,,---,0.04,VWS V14.01,2013-02-23 21:05:00,
2013-02-23 14:10:00,37.0,16.1,29.96,WSW,249,15.0,15.0,42,0.01,,---,0.04,VWS V14.01,2013-02-23 21:10:00,
2013-02-23 14:15:00,37.1,14.4,29.96,SW,227,8.0,16.0,39,0.01,,---,0.04,VWS V14.01,2013-02-23 21:15:00,
2013-02-23 14:21:00,37.2,16.8,29.96,South,182,4.0,7.0,43,0.01,,---,0.04,VWS V14.01,2013-02-23 21:21:00,
2013-02-23 14:26:00,37.1,15.6,29.96,SW,232,13.0,15.0,41,0.01,,---,0.04,VWS V14.01,2013-02-23 21:26:00,
2013-02-23 14:31:00,37.0,17.1,29.96,South,177,10.0,11.0,44,0.01,,---,0.04,VWS V14.01,2013-02-23 21:31:00,
2013-02-23 14:36:00,36.8,16.4,29.96,South,177,13.0,15.0,43,0.01,,---,0.04,VWS V14.01,2013-02-23 21:36:00,
2013-02-23 14:41:00,36.5,15.1,29.96,South,170,9.0,9.0,41,0.01,,---,0.04,VWS V14.01,2013-02-23 21:41:00,
2013-02-23 14:46:00,36.8,16.4,29.96,SW,219,8.0,10.0,43,0.01,,---,0.04,VWS V14.01,2013-02-23 21:46:00,
2013-02-23 14:51:00,36.8,15.9,29.96,SSW,200,12.0,13.0,42,0.01,,---,0.04,VWS V14.01,2013-02-23 21:51:00,
2013-02-23 14:56:00,36.6,14.0,29.96,SW,226,13.0,13.0,39,0.00,,---,0.04,VWS V14.01,2013-02-23 21:56:00,
2013-02-23 15:01:00,36.4,16.6,29.96,SW,217,10.0,13.0,44,0.00,,---,0.04,VWS V14.01,2013-02-23 22:01:00,
2013-02-23 15:06:00,36.4,15.5,29.96,SSW,209,6.0,9.0,42,0.00,,---,0.04,VWS V14.01,2013-02-23 22:06:00,
2013-02-23 15:11:00,35.9,13.9,29.95,SW,219,7.0,11.0,40,0.00,,---,0.04,VWS V14.01,2013-02-23 22:11:00,
2013-02-23 15:16:00,35.5,13.6,29.95,WSW,256,8.0,23.0,40,0.00,,---,0.04,VWS V14.01,2013-02-23 22:16:00,
2013-02-23 15:21:00,35.1,13.8,29.95,WSW,258,12.0,12.0,41,0.00,,---,0.04,VWS V14.01,2013-02-23 22:21:00,
2013-02-23 15:26:00,35.2,13.3,29.95,WNW,285,12.0,12.0,40,0.01,,---,0.05,VWS V14.01,2013-02-23 22:26:00,
2013-02-23 15:31:00,35.5,13.6,29.95,SW,234,8.0,12.0,40,0.01,,---,0.05,VWS V14.01,2013-02-23 22:31:00,
2013-02-23 15:36:00,35.7,13.8,29.95,SSW,213,11.0,14.0,40,0.01,,---,0.05,VWS V14.01,2013-02-23 22:36:00,
2013-02-23 15:42:00,35.3,14.0,29.95,SW,234,8.0,8.0,41,0.01,,---,0.05,VWS V14.01,2013-02-23 22:42:00,
2013-02-23 15:47:00,34.7,12.3,29.95,SW,234,8.0,12.0,39,0.01,,---,0.05,VWS V14.01,2013-02-23 22:47:00,
2013-02-23 15:52:00,34.8,12.9,29.94,SSW,211,15.0,15.0,40,0.01,,---,0.05,VWS V14.01,2013-02-23 22:52:00,
2013-02-23 15:57:00,34.9,13.6,29.94,SSW,192,5.0,12.0,41,0.01,,---,0.05,VWS V14.01,2013-02-23 22:57:00,
2013-02-23 16:02:00,34.3,13.1,29.95,SSW,213,4.0,7.0,41,0.01,,---,0.05,VWS V14.01,2013-02-23 23:02:00,
2013-02-23 16:07:00,34.4,13.7,29.94,SW,225,9.0,12.0,42,0.01,,---,0.05,VWS V14.01,2013-02-23 23:07:00,
2013-02-23 16:12:00,34.8,14.6,29.94,South,187,2.0,4.0,43,0.01,,---,0.05,VWS V14.01,2013-02-23 23:12:00,
2013-02-23 16:17:00,34.9,13.6,29.94,South,190,4.0,5.0,41,0.01,,---,0.05,VWS V14.01,2013-02-23 23:17:00,
2013-02-23 16:22:00,34.4,13.7,29.93,South,182,9.0,16.0,42,0.01,,---,0.05,VWS V14.01,2013-02-23 23:22:00,
2013-02-23 16:27:00,34.0,13.9,29.93,South,170,8.0,8.0,43,0.00,,---,0.05,VWS V14.01,2013-02-23 23:27:00,
2013-02-23 16:32:00,33.7,14.6,29.92,South,173,7.0,7.0,45,0.00,,---,0.05,VWS V14.01,2013-02-23 23:32:00,
2013-02-23 16:37:00,33.5,13.9,29.92,SSE,151,1.0,1.0,44,0.00,,---,0.05,VWS V14.01,2013-02-23 23:37:00,
2013-02-23 16:42:00,32.6,13.1,29.91,South,170,5.0,8.0,44,0.00,,---,0.05,VWS V14.01,2013-02-23 23:42:00,
2013-02-23 16:47:00,31.7,13.3,29.91,SSW,194,5.0,5.0,46,0.00,,---,0.05,VWS V14.01,2013-02-23 23:47:00,
2013-02-23 16:52:00,30.9,13.5,29.91,SSW,204,9.0,12.0,48,0.00,,---,0.05,VWS V14.01,2013-02-23 23:52:00,
2013-02-23 16:57:00,30.3,13.4,29.91,SSW,205,4.0,5.0,49,0.00,,---,0.05,VWS V14.01,2013-02-23 23:57:00,
2013-02-23 17:02:00,30.0,13.2,29.91,SSW,197,2.0,4.0,49,0.00,,---,0.05,VWS V14.01,2013-02-24 00:02:00,
2013-02-23 17:07:00,29.8,14.8,29.91,SE,128,2.0,2.0,53,0.00,,---,0.05,VWS V14.01,2013-02-24 00:07:00,
2013-02-23 17:12:00,29.2,14.6,29.91,SE,142,5.0,6.0,54,0.00,,---,0.05,VWS V14.01,2013-02-24 00:12:00,
2013-02-23 17:17:00,28.3,15.0,29.91,ESE,123,0.0,5.0,57,0.00,,---,0.05,VWS V14.01,2013-02-24 00:17:00,
2013-02-23 17:22:00,27.8,15.0,29.91,SSE,148,2.0,7.0,58,0.00,,---,0.05,VWS V14.01,2013-02-24 00:22:00,
2013-02-23 17:27:00,27.4,14.6,29.91,SSE,148,2.0,2.0,58,0.00,,---,0.05,VWS V14.01,2013-02-24 00:27:00,
2013-02-23 17:33:00,27.0,15.0,29.91,SE,146,7.0,7.0,60,0.00,,---,0.05,VWS V14.01,2013-02-24 00:33:00,
2013-02-23 17:38:00,26.6,15.0,29.91,SE,139,4.0,4.0,61,0.00,,---,0.05,VWS V14.01,2013-02-24 00:38:00,
2013-02-23 17:43:00,26.3,15.1,29.90,SE,136,0.0,0.0,62,0.00,,---,0.05,VWS V14.01,2013-02-24 00:43:00,
2013-02-23 17:48:00,26.1,14.9,29.90,SE,136,0.0,1.0,62,0.00,,---,0.05,VWS V14.01,2013-02-24 00:48:00,
2013-02-23 17:53:00,26.0,15.1,29.90,SE,138,0.0,0.0,63,0.00,,---,0.05,VWS V14.01,2013-02-24 00:53:00,
2013-02-23 17:58:00,25.8,15.0,29.90,NE,49,0.0,0.0,63,0.00,,---,0.05,VWS V14.01,2013-02-24 00:58:00,
2013-02-23 18:03:00,25.7,14.9,29.91,North,5,2.0,4.0,63,0.00,,---,0.05,VWS V14.01,2013-02-24 01:03:00,
2013-02-23 18:08:00,25.6,15.1,29.92,North,5,2.0,6.0,64,0.00,,---,0.05,VWS V14.01,2013-02-24 01:08:00,
2013-02-23 18:13:00,25.6,15.1,29.92,NE,41,4.0,4.0,64,0.00,,---,0.05,VWS V14.01,2013-02-24 01:13:00,
2013-02-23 18:18:00,25.5,14.7,29.91,NE,36,0.0,3.0,63,0.00,,---,0.05,VWS V14.01,2013-02-24 01:18:00,
2013-02-23 18:23:00,25.4,14.6,29.92,NE,36,0.0,0.0,63,0.00,,---,0.05,VWS V14.01,2013-02-24 01:23:00,
2013-02-23 18:28:00,25.3,14.5,29.92,ENE,67,0.0,0.0,63,0.00,,---,0.05,VWS V14.01,2013-02-24 01:28:00,
2013-02-23 18:33:00,25.2,14.4,29.93,ENE,67,0.0,0.0,63,0.00,,---,0.05,VWS V14.01,2013-02-24 01:33:00,
2013-02-23 18:38:00,25.2,14.8,29.93,ESE,111,2.0,4.0,64,0.00,,---,0.05,VWS V14.01,2013-02-24 01:38:00,
2013-02-23 18:43:00,25.2,15.1,29.94,SW,219,4.0,7.0,65,0.00,,---,0.05,VWS V14.01,2013-02-24 01:43:00,
2013-02-23 18:48:00,25.3,16.2,29.95,WSW,240,9.0,11.0,68,0.00,,---,0.05,VWS V14.01,2013-02-24 01:48:00,
2013-02-23 18:53:00,25.1,18.0,29.94,West,261,4.0,10.0,74,0.00,,---,0.05,VWS V14.01,2013-02-24 01:53:00,
2013-02-23 18:58:00,24.8,18.6,29.94,WSW,254,5.0,9.0,77,0.00,,---,0.05,VWS V14.01,2013-02-24 01:58:00,
2013-02-23 19:03:00,24.6,18.7,29.94,SW,235,0.0,4.0,78,0.00,,---,0.05,VWS V14.01,2013-02-24 02:03:00,
2013-02-23 19:08:00,24.4,18.8,29.94,SW,225,2.0,2.0,79,0.00,,---,0.05,VWS V14.01,2013-02-24 02:08:00,
2013-02-23 19:13:00,24.3,19.3,29.93,ESE,114,0.0,1.0,81,0.00,,---,0.05,VWS V14.01,2013-02-24 02:13:00,
2013-02-23 19:18:00,24.2,18.9,29.94,ESE,114,4.0,5.0,80,0.00,,---,0.05,VWS V14.01,2013-02-24 02:18:00,
2013-02-23 19:23:00,24.0,19.0,29.94,East,89,7.0,8.0,81,0.00,,---,0.05,VWS V14.01,2013-02-24 02:23:00,
2013-02-23 19:28:00,23.9,19.2,29.93,ESE,107,4.0,6.0,82,0.00,,---,0.05,VWS V14.01,2013-02-24 02:28:00,
2013-02-23 19:33:00,23.8,19.4,29.94,ESE,106,1.0,2.0,83,0.00,,---,0.05,VWS V14.01,2013-02-24 02:33:00,
2013-02-23 19:38:00,23.5,19.1,29.93,ESE,106,1.0,5.0,83,0.00,,---,0.05,VWS V14.01,2013-02-24 02:38:00,
2013-02-23 19:43:00,23.4,19.3,29.93,ESE,106,0.0,0.0,84,0.00,,---,0.05,VWS V14.01,2013-02-24 02:43:00,
2013-02-23 19:48:00,23.3,19.2,29.93,ESE,106,0.0,0.0,84,0.00,,---,0.05,VWS V14.01,2013-02-24 02:48:00,
2013-02-23 19:53:00,23.2,19.1,29.93,ESE,106,0.0,0.0,84,0.00,,---,0.05,VWS V14.01,2013-02-24 02:53:00,
2013-02-23 19:58:00,23.1,19.0,29.92,East,90,2.0,5.0,84,0.00,,---,0.05,VWS V14.01,2013-02-24 02:58:00,
2013-02-23 20:03:00,23.0,18.9,29.92,NE,49,1.0,4.0,84,0.00,,---,0.05,VWS V14.01,2013-02-24 03:03:00,
2013-02-23 20:08:00,22.9,18.8,29.92,North,355,4.0,5.0,84,0.00,,---,0.05,VWS V14.01,2013-02-24 03:08:00,
2013-02-23 20:13:00,22.7,18.9,29.92,North,351,0.0,2.0,85,0.00,,---,0.05,VWS V14.01,2013-02-24 03:13:00,
2013-02-23 20:18:00,22.6,18.8,29.91,North,351,0.0,0.0,85,0.00,,---,0.05,VWS V14.01,2013-02-24 03:18:00,
2013-02-23 20:23:00,22.5,18.7,29.92,North,351,0.0,0.0,85,0.00,,---,0.05,VWS V14.01,2013-02-24 03:23:00,
2013-02-23 20:28:00,22.5,19.0,29.92,North,351,0.0,0.0,86,0.00,,---,0.05,VWS V14.01,2013-02-24 03:28:00,
2013-02-23 20:33:00,22.5,19.0,29.92,North,351,0.0,0.0,86,0.00,,---,0.05,VWS V14.01,2013-02-24 03:33:00,
2013-02-23 20:38:00,22.6,19.0,29.92,North,351,0.0,0.0,86,0.00,,---,0.05,VWS V14.01,2013-02-24 03:38:00,
2013-02-23 20:43:00,22.6,19.0,29.92,North,351,1.0,1.0,86,0.00,,---,0.05,VWS V14.01,2013-02-24 03:43:00,
2013-02-23 20:48:00,22.7,18.6,29.92,NNW,345,0.0,1.0,84,0.00,,---,0.05,VWS V14.01,2013-02-24 03:48:00,
2013-02-23 20:53:00,22.7,17.8,29.92,WNW,286,1.0,2.0,81,0.00,,---,0.05,VWS V14.01,2013-02-24 03:53:00,
2013-02-23 20:58:00,22.7,17.2,29.92,NNW,329,1.0,2.0,79,0.00,,---,0.05,VWS V14.01,2013-02-24 03:58:00,
2013-02-23 21:03:00,22.7,16.9,29.92,NW,304,1.0,7.0,78,0.00,,---,0.05,VWS V14.01,2013-02-24 04:03:00,
2013-02-23 21:08:00,22.6,16.8,29.92,NNE,32,4.0,5.0,78,0.00,,---,0.05,VWS V14.01,2013-02-24 04:08:00,
2013-02-23 21:13:00,22.4,16.6,29.93,NNW,345,4.0,4.0,78,0.00,,---,0.05,VWS V14.01,2013-02-24 04:13:00,
2013-02-23 21:18:00,22.3,16.2,29.93,NNW,334,7.0,8.0,77,0.00,,---,0.05,VWS V14.01,2013-02-24 04:18:00,
2013-02-23 21:23:00,22.2,16.4,29.92,NW,324,3.0,5.0,78,0.00,,---,0.05,VWS V14.01,2013-02-24 04:23:00,
2013-02-23 21:28:00,22.1,16.6,29.92,West,279,4.0,7.0,79,0.00,,---,0.05,VWS V14.01,2013-02-24 04:28:00,
2013-02-23 21:33:00,22.1,16.6,29.93,West,269,1.0,5.0,79,0.00,,---,0.05,VWS V14.01,2013-02-24 04:33:00,
2013-02-23 21:39:00,22.0,16.5,29.93,NW,309,9.0,9.0,79,0.00,,---,0.05,VWS V14.01,2013-02-24 04:39:00,
2013-02-23 21:44:00,21.8,16.3,29.93,WNW,299,0.0,4.0,79,0.00,,---,0.05,VWS V14.01,2013-02-24 04:44:00,
2013-02-23 21:49:00,21.7,15.9,29.93,NW,310,3.0,6.0,78,0.00,,---,0.05,VWS V14.01,2013-02-24 04:49:00,
2013-02-23 21:54:00,21.6,15.5,29.93,NW,306,8.0,15.0,77,0.00,,---,0.05,VWS V14.01,2013-02-24 04:54:00,
2013-02-23 21:59:00,21.3,16.1,29.93,West,274,0.0,6.0,80,0.00,,---,0.05,VWS V14.01,2013-02-24 04:59:00,
2013-02-23 22:00:00,21.2,16.0,29.92,SW,230,1.0,6.0,80,0.00,,---,0.05,VWS V14.01,2013-02-24 05:00:00,
2013-02-23 22:01:00,21.2,16.3,29.92,West,266,2.0,5.0,81,0.00,,---,0.05,VWS V14.01,2013-02-24 05:01:00,
2013-02-23 22:06:00,20.9,16.6,29.92,WNW,282,1.0,2.0,83,0.00,,---,0.05,VWS V14.01,2013-02-24 05:06:00,
2013-02-23 22:11:00,20.7,16.6,29.91,WNW,283,1.0,3.0,84,0.00,,---,0.05,VWS V14.01,2013-02-24 05:11:00,
2013-02-23 22:16:00,20.5,16.4,29.91,WNW,282,0.0,0.0,84,0.00,,---,0.05,VWS V14.01,2013-02-24 05:16:00,
2013-02-23 22:21:00,20.3,16.2,29.90,NNW,330,6.0,9.0,84,0.00,,---,0.05,VWS V14.01,2013-02-24 05:21:00,
2013-02-23 22:26:00,19.9,15.6,29.90,NW,306,6.0,8.0,83,0.00,,---,0.05,VWS V14.01,2013-02-24 05:26:00,
2013-02-23 22:31:00,19.4,15.1,29.90,North,9,7.0,10.0,83,0.00,,---,0.05,VWS V14.01,2013-02-24 05:31:00,
2013-02-23 22:36:00,19.0,14.7,29.91,NNW,328,6.0,10.0,83,0.00,,---,0.05,VWS V14.01,2013-02-24 05:36:00,
2013-02-23 22:41:00,18.7,14.4,29.90,North,355,9.0,9.0,83,0.00,,---,0.05,VWS V14.01,2013-02-24 05:41:00,
2013-02-23 22:46:00,18.4,14.4,29.90,North,355,3.0,8.0,84,0.00,,---,0.05,VWS V14.01,2013-02-24 05:46:00,
2013-02-23 22:51:00,18.3,14.3,29.91,NW,321,4.0,10.0,84,0.00,,---,0.05,VWS V14.01,2013-02-24 05:51:00,
2013-02-23 22:56:00,18.1,14.1,29.90,NW,304,0.0,6.0,84,0.00,,---,0.05,VWS V14.01,2013-02-24 05:56:00,
2013-02-23 23:01:00,18.0,14.0,29.91,North,355,7.0,9.0,84,0.00,,---,0.05,VWS V14.01,2013-02-24 06:01:00,
2013-02-23 23:06:00,17.7,13.7,29.90,North,355,1.0,10.0,84,0.00,,---,0.05,VWS V14.01,2013-02-24 06:06:00,
2013-02-23 23:11:00,17.4,13.4,29.89,NNW,342,5.0,11.0,84,0.00,,---,0.05,VWS V14.01,2013-02-24 06:11:00,
2013-02-23 23:16:00,17.2,13.2,29.89,NNW,327,5.0,10.0,84,0.00,,---,0.05,VWS V14.01,2013-02-24 06:16:00,
2013-02-23 23:21:00,16.9,13.2,29.89,NNW,341,2.0,8.0,85,0.00,,---,0.05,VWS V14.01,2013-02-24 06:21:00,
2013-02-23 23:26:00,16.7,13.0,29.89,North,355,13.0,13.0,85,0.00,,---,0.05,VWS V14.01,2013-02-24 06:26:00,
2013-02-23 23:31:00,16.4,12.7,29.89,NW,305,3.0,8.0,85,0.00,,---,0.05,VWS V14.01,2013-02-24 06:31:00,
2013-02-23 23:36:00,16.2,12.8,29.89,North,360,12.0,12.0,86,0.00,,---,0.05,VWS V14.01,2013-02-24 06:36:00,
2013-02-23 23:41:00,16.2,12.8,29.90,North,350,2.0,9.0,86,0.00,,---,0.05,VWS V14.01,2013-02-24 06:41:00,
2013-02-23 23:46:00,16.1,12.9,29.89,North,5,5.0,11.0,87,0.00,,---,0.05,VWS V14.01,2013-02-24 06:46:00,
2013-02-23 23:51:00,16.0,12.8,29.90,North,5,4.0,11.0,87,0.00,,---,0.05,VWS V14.01,2013-02-24 06:51:00,
2013-02-23 23:56:00,15.9,12.7,29.90,NNW,344,6.0,9.0,87,0.00,,---,0.05,VWS V14.01,2013-02-24 06:56:00,